createdAt,value
2017-12-22T00:02:20.753Z,102799.48
2017-12-22T00:04:48.618Z,102785.61
2017-12-22T00:07:16.173Z,102787.25
2017-12-22T00:09:43.864Z,102782.17
2017-12-22T00:12:11.426Z,102780.34
2017-12-22T00:14:39.016Z,102787.06
2017-12-22T00:17:06.586Z,102778.50
2017-12-22T00:19:34.186Z,102785.48
2017-12-22T00:22:01.707Z,102788.05
2017-12-22T00:24:29.721Z,102787.74
2017-12-22T00:26:57.491Z,102786.02
2017-12-22T00:29:25.083Z,102772.13
2017-12-22T00:31:52.956Z,102769.48
2017-12-22T00:34:20.616Z,102771.02
2017-12-22T00:36:48.218Z,102766.84
2017-12-22T00:39:15.820Z,102762.25
2017-12-22T00:41:43.340Z,102765.19
2017-12-22T00:44:10.927Z,102760.02
2017-12-22T00:46:38.525Z,102762.36
2017-12-22T00:49:06.094Z,102755.04
2017-12-22T00:51:33.688Z,102753.03
2017-12-22T00:54:01.302Z,102751.02
2017-12-22T00:56:28.942Z,102748.81
2017-12-22T00:58:56.761Z,102750.91
2017-12-22T01:01:24.351Z,102751.20
2017-12-22T01:03:51.944Z,102752.36
2017-12-22T01:06:19.515Z,102752.36
2017-12-22T01:08:47.103Z,102754.05
2017-12-22T01:11:15.040Z,102753.32
2017-12-22T01:13:42.815Z,102756.84
2017-12-22T01:16:16.062Z,102756.72
2017-12-22T01:18:49.082Z,102757.16
2017-12-22T01:21:16.656Z,102749.75
2017-12-22T01:23:44.184Z,102744.23
2017-12-22T01:26:11.753Z,102747.45
2017-12-22T01:28:39.654Z,102753.21
2017-12-22T01:31:07.274Z,102741.16
2017-12-22T01:33:35.082Z,102743.50
2017-12-22T01:36:02.721Z,102743.91
2017-12-22T01:38:30.287Z,102744.08
2017-12-22T01:40:58.234Z,102740.73
2017-12-22T01:43:25.765Z,102740.36
2017-12-22T01:45:53.327Z,102735.77
2017-12-22T01:48:21.229Z,102730.08
2017-12-22T01:50:48.791Z,102729.56
2017-12-22T01:53:16.476Z,102733.58
2017-12-22T01:55:44.064Z,102731.20
2017-12-22T01:58:11.587Z,102727.33
2017-12-22T02:00:39.508Z,102726.33
2017-12-22T02:03:07.036Z,102729.97
2017-12-22T02:05:34.595Z,102729.85
2017-12-22T02:08:02.148Z,102727.21
2017-12-22T02:10:29.734Z,102726.36
2017-12-22T02:12:57.283Z,102726.70
2017-12-22T02:15:24.833Z,102730.94
2017-12-22T02:17:52.424Z,102721.77
2017-12-22T02:20:19.986Z,102729.45
2017-12-22T02:22:47.546Z,102728.53
2017-12-22T02:25:15.337Z,102720.69
2017-12-22T02:27:42.988Z,102715.30
2017-12-22T02:30:10.521Z,102720.23
2017-12-22T02:32:38.256Z,102712.59
2017-12-22T02:35:05.819Z,102706.34
2017-12-22T02:37:33.609Z,102710.23
2017-12-22T02:40:01.204Z,102711.55
2017-12-22T02:42:28.770Z,102711.06
2017-12-22T02:44:56.753Z,102714.92
2017-12-22T02:47:24.300Z,102713.47
2017-12-22T02:49:51.853Z,102707.09
2017-12-22T02:52:19.475Z,102704.95
2017-12-22T02:54:47.042Z,102703.44
2017-12-22T02:57:14.809Z,102705.11
2017-12-22T02:59:42.428Z,102703.56
2017-12-22T03:02:10.005Z,102704.59
2017-12-22T03:04:37.734Z,102699.51
2017-12-22T03:07:05.322Z,102698.25
2017-12-22T03:09:33.080Z,102699.37
2017-12-22T03:12:00.696Z,102695.45
2017-12-22T03:14:28.266Z,102698.70
2017-12-22T03:16:55.807Z,102701.81
2017-12-22T03:19:23.430Z,102699.47
2017-12-22T03:21:50.974Z,102702.67
2017-12-22T03:24:18.495Z,102694.03
2017-12-22T03:26:46.087Z,102698.95
2017-12-22T03:29:13.678Z,102695.15
2017-12-22T03:31:41.265Z,102694.08
2017-12-22T03:34:08.899Z,102689.33
2017-12-22T03:36:36.453Z,102683.63
2017-12-22T03:39:04.164Z,102686.08
2017-12-22T03:41:31.763Z,102677.95
2017-12-22T03:43:59.332Z,102675.83
2017-12-22T03:46:26.918Z,102674.07
2017-12-22T03:48:54.661Z,102675.09
2017-12-22T03:51:22.387Z,102685.00
2017-12-22T03:53:51.886Z,102681.69
2017-12-22T03:56:19.841Z,102678.27
2017-12-22T03:58:47.376Z,102674.11
2017-12-22T04:01:14.929Z,102675.00
2017-12-22T04:03:42.514Z,102681.89
2017-12-22T04:06:11.553Z,102674.54
2017-12-22T04:08:39.339Z,102670.47
2017-12-22T04:11:06.917Z,102669.97
2017-12-22T04:13:34.446Z,102674.50
2017-12-22T04:16:01.968Z,102677.48
2017-12-22T04:18:29.913Z,102670.62
2017-12-22T04:20:57.511Z,102673.97
2017-12-22T04:23:25.076Z,102680.22
2017-12-22T04:25:52.762Z,102678.20
2017-12-22T04:28:20.752Z,102687.87
2017-12-22T04:30:48.343Z,102688.65
2017-12-22T04:33:15.993Z,102692.66
2017-12-22T04:35:43.595Z,102689.02
2017-12-22T04:38:11.176Z,102691.08
2017-12-22T04:40:38.730Z,102691.91
2017-12-22T04:43:06.268Z,102693.71
2017-12-22T04:45:34.368Z,102684.56
2017-12-22T04:48:01.896Z,102692.09
2017-12-22T04:50:29.425Z,102688.98
2017-12-22T04:52:57.017Z,102690.78
2017-12-22T04:55:24.573Z,102688.19
2017-12-22T04:57:52.120Z,102689.11
2017-12-22T05:00:20.255Z,102694.41
2017-12-22T05:02:47.874Z,102688.31
2017-12-22T05:05:15.432Z,102686.07
2017-12-22T05:07:43.381Z,102672.59
2017-12-22T05:10:11.351Z,102673.78
2017-12-22T05:12:38.930Z,102671.60
2017-12-22T05:15:06.655Z,102675.91
2017-12-22T05:17:34.331Z,102676.45
2017-12-22T05:20:01.858Z,102672.12
2017-12-22T05:22:29.438Z,102677.23
2017-12-22T05:24:57.595Z,102674.77
2017-12-22T05:27:25.187Z,102677.37
2017-12-22T05:29:52.751Z,102680.03
2017-12-22T05:32:20.296Z,102678.36
2017-12-22T05:34:48.083Z,102674.56
2017-12-22T05:37:15.635Z,102676.53
2017-12-22T05:39:43.151Z,102666.27
2017-12-22T05:42:11.055Z,102661.56
2017-12-22T05:44:38.618Z,102660.72
2017-12-22T05:47:06.178Z,102668.80
2017-12-22T05:49:33.804Z,102665.16
2017-12-22T05:52:01.391Z,102662.52
2017-12-22T05:54:29.027Z,102663.19
2017-12-22T05:56:56.595Z,102668.05
2017-12-22T05:59:24.171Z,102672.80
2017-12-22T06:01:51.728Z,102665.81
2017-12-22T06:04:19.248Z,102674.40
2017-12-22T06:06:46.820Z,102670.00
2017-12-22T06:09:14.378Z,102670.16
2017-12-22T06:11:41.951Z,102660.65
2017-12-22T06:14:09.762Z,102662.20
2017-12-22T06:16:37.665Z,102666.00
2017-12-22T06:19:05.230Z,102673.54
2017-12-22T06:21:32.789Z,102680.38
2017-12-22T06:24:00.681Z,102681.09
2017-12-22T06:26:28.208Z,102678.05
2017-12-22T06:28:55.761Z,102675.02
2017-12-22T06:31:23.336Z,102673.34
2017-12-22T06:33:50.907Z,102670.10
2017-12-22T06:36:18.433Z,102666.58
2017-12-22T06:38:46.521Z,102668.34
2017-12-22T06:41:14.105Z,102667.74
2017-12-22T06:43:41.674Z,102670.33
2017-12-22T06:46:09.266Z,102678.61
2017-12-22T06:48:36.886Z,102686.42
2017-12-22T06:51:04.458Z,102683.27
2017-12-22T06:53:32.107Z,102681.79
2017-12-22T06:55:59.666Z,102687.61
2017-12-22T06:58:27.197Z,102693.08
2017-12-22T07:00:54.945Z,102683.67
2017-12-22T07:03:22.574Z,102695.72
2017-12-22T07:05:50.150Z,102694.28
2017-12-22T07:08:17.681Z,102686.80
2017-12-22T07:10:46.150Z,102677.80
2017-12-22T07:13:13.710Z,102677.54
2017-12-22T07:15:41.323Z,102685.67
2017-12-22T07:18:08.839Z,102695.00
2017-12-22T07:20:36.840Z,102701.75
2017-12-22T07:23:04.415Z,102705.28
2017-12-22T07:25:31.951Z,102720.47
2017-12-22T07:27:59.581Z,102722.48
2017-12-22T07:30:27.137Z,102723.00
2017-12-22T07:32:54.865Z,102723.95
2017-12-22T07:35:22.757Z,102725.69
2017-12-22T07:37:50.416Z,102726.56
2017-12-22T07:40:17.992Z,102729.13
2017-12-22T07:42:45.605Z,102724.45
2017-12-22T07:45:13.232Z,102720.19
2017-12-22T07:47:40.802Z,102719.27
2017-12-22T07:50:08.364Z,102719.03
2017-12-22T07:52:35.927Z,102731.02
2017-12-22T07:55:03.448Z,102742.00
2017-12-22T07:57:31.032Z,102750.41
2017-12-22T07:59:58.590Z,102764.93
2017-12-22T08:02:26.218Z,102771.33
2017-12-22T08:04:53.782Z,102771.89
2017-12-22T08:07:21.320Z,102779.30
2017-12-22T08:09:48.888Z,102782.14
2017-12-22T08:12:16.470Z,102789.09
2017-12-22T08:14:43.999Z,102793.81
2017-12-22T08:17:11.539Z,102801.11
2017-12-22T08:19:39.129Z,102798.75
2017-12-22T08:22:06.707Z,102812.00
2017-12-22T08:24:34.649Z,102813.73
2017-12-22T08:27:02.210Z,102817.98
2017-12-22T08:29:29.786Z,102822.68
2017-12-22T08:31:57.384Z,102839.45
2017-12-22T08:34:24.908Z,102837.80
2017-12-22T08:36:52.474Z,102835.55
2017-12-22T08:39:20.062Z,102835.14
2017-12-22T08:41:47.630Z,102837.09
2017-12-22T08:44:15.241Z,102845.73
2017-12-22T08:46:42.764Z,102848.72
2017-12-22T08:49:10.371Z,102840.44
2017-12-22T08:51:38.094Z,102829.48
2017-12-22T08:54:05.628Z,102820.08
2017-12-22T08:56:33.167Z,102817.31
2017-12-22T08:59:00.732Z,102822.08
2017-12-22T09:01:28.318Z,102824.95
2017-12-22T09:03:55.836Z,102816.67
2017-12-22T09:06:23.423Z,102819.26
2017-12-22T09:08:50.990Z,102824.77
2017-12-22T09:11:18.813Z,102833.49
2017-12-22T09:13:46.349Z,102837.80
2017-12-22T09:16:13.953Z,102837.91
2017-12-22T09:18:41.736Z,102843.31
2017-12-22T09:21:09.269Z,102847.96
2017-12-22T09:23:36.922Z,102850.95
2017-12-22T09:26:04.535Z,102849.86
2017-12-22T09:28:32.107Z,102856.03
2017-12-22T09:30:59.661Z,102858.12
2017-12-22T09:33:27.579Z,102852.55
2017-12-22T09:35:55.143Z,102857.53
2017-12-22T09:38:22.702Z,102857.01
2017-12-22T09:40:50.320Z,102860.55
2017-12-22T09:43:17.911Z,102866.63
2017-12-22T09:45:45.666Z,102871.65
2017-12-22T09:48:13.699Z,102861.82
2017-12-22T09:50:41.232Z,102855.58
2017-12-22T09:53:08.767Z,102856.04
2017-12-22T09:55:36.344Z,102858.40
2017-12-22T09:58:03.864Z,102867.61
2017-12-22T10:00:31.391Z,102867.44
2017-12-22T10:02:59.002Z,102867.10
2017-12-22T10:05:26.571Z,102865.52
2017-12-22T10:07:54.125Z,102873.84
2017-12-22T10:10:21.678Z,102882.37
2017-12-22T10:12:49.581Z,102874.83
2017-12-22T10:15:17.101Z,102875.75
2017-12-22T10:17:44.699Z,102874.13
2017-12-22T10:20:12.261Z,102867.54
2017-12-22T10:22:39.814Z,102861.02
2017-12-22T10:25:07.394Z,102864.17
2017-12-22T10:27:34.916Z,102865.16
2017-12-22T10:30:02.542Z,102861.19
2017-12-22T10:32:30.105Z,102861.74
2017-12-22T10:34:57.669Z,102856.07
2017-12-22T10:37:25.204Z,102851.83
2017-12-22T10:39:52.767Z,102853.50
2017-12-22T10:42:20.339Z,102855.44
2017-12-22T10:44:47.903Z,102855.88
2017-12-22T10:47:15.478Z,102861.02
2017-12-22T10:49:43.001Z,102857.60
2017-12-22T10:52:10.623Z,102864.02
2017-12-22T10:54:38.415Z,102860.22
2017-12-22T10:57:05.932Z,102861.91
2017-12-22T10:59:33.809Z,102869.20
2017-12-22T11:02:01.338Z,102866.44
2017-12-22T11:04:28.904Z,102859.37
2017-12-22T11:06:56.475Z,102868.20
2017-12-22T11:09:24.030Z,102875.84
2017-12-22T11:11:51.599Z,102876.48
2017-12-22T11:14:19.116Z,102881.13
2017-12-22T11:16:46.694Z,102878.47
2017-12-22T11:19:14.278Z,102879.02
2017-12-22T11:21:41.858Z,102890.63
2017-12-22T11:24:09.418Z,102891.11
2017-12-22T11:26:37.010Z,102887.80
2017-12-22T11:29:04.568Z,102892.08
2017-12-22T11:31:32.123Z,102897.31
2017-12-22T11:33:59.690Z,102899.77
2017-12-22T11:36:27.308Z,102885.31
2017-12-22T11:38:54.924Z,102880.19
2017-12-22T11:41:22.714Z,102872.81
2017-12-22T11:43:50.395Z,102873.44
2017-12-22T11:46:18.329Z,102874.24
2017-12-22T11:48:45.895Z,102869.76
2017-12-22T11:51:13.512Z,102865.50
2017-12-22T11:53:41.101Z,102879.50
2017-12-22T11:56:08.677Z,102887.61
2017-12-22T11:58:36.235Z,102881.17
2017-12-22T12:01:04.141Z,102885.06
2017-12-22T12:03:31.787Z,102880.04
2017-12-22T12:05:59.308Z,102885.48
2017-12-22T12:08:26.844Z,102892.23
2017-12-22T12:10:54.363Z,102892.84
2017-12-22T12:13:21.901Z,102884.26
2017-12-22T12:15:49.488Z,102888.10
2017-12-22T12:18:17.017Z,102891.77
2017-12-22T12:20:44.955Z,102888.09
2017-12-22T12:23:12.467Z,102882.36
2017-12-22T12:25:40.131Z,102883.06
2017-12-22T12:28:07.724Z,102885.42
2017-12-22T12:30:35.507Z,102886.63
2017-12-22T12:33:03.039Z,102889.58
2017-12-22T12:35:30.588Z,102874.37
2017-12-22T12:37:58.199Z,102871.27
2017-12-22T12:40:25.788Z,102864.17
2017-12-22T12:42:53.308Z,102861.27
2017-12-22T12:45:20.940Z,102862.34
2017-12-22T12:47:48.507Z,102864.58
2017-12-22T12:50:16.188Z,102867.52
2017-12-22T12:52:43.713Z,102870.58
2017-12-22T12:55:11.272Z,102875.28
2017-12-22T12:57:38.867Z,102873.41
2017-12-22T13:00:06.427Z,102879.59
2017-12-22T13:02:34.403Z,102872.51
2017-12-22T13:05:01.958Z,102871.63
2017-12-22T13:07:29.517Z,102865.61
2017-12-22T13:09:57.508Z,102861.65
2017-12-22T13:12:25.078Z,102871.58
2017-12-22T13:14:52.638Z,102873.93
2017-12-22T13:17:20.226Z,102869.67
2017-12-22T13:19:47.779Z,102882.05
2017-12-22T13:22:15.581Z,102880.34
2017-12-22T13:24:43.130Z,102875.57
2017-12-22T13:27:10.711Z,102876.45
2017-12-22T13:29:38.228Z,102868.77
2017-12-22T13:32:05.820Z,102866.38
2017-12-22T13:34:33.424Z,102864.55
2017-12-22T13:37:01.166Z,102863.01
2017-12-22T13:39:28.778Z,102860.80
2017-12-22T13:41:56.330Z,102851.07
2017-12-22T13:44:24.089Z,102856.11
2017-12-22T13:46:51.665Z,102858.86
2017-12-22T13:49:19.209Z,102860.81
2017-12-22T13:51:46.751Z,102872.16
2017-12-22T13:54:14.294Z,102873.45
2017-12-22T13:56:42.099Z,102874.27
2017-12-22T13:59:09.779Z,102880.80
2017-12-22T14:01:37.323Z,102881.48
2017-12-22T14:04:05.427Z,102885.48
2017-12-22T14:06:32.985Z,102885.16
2017-12-22T14:09:00.662Z,102888.68
2017-12-22T14:11:28.250Z,102892.54
2017-12-22T14:13:55.764Z,102893.55
2017-12-22T14:16:23.508Z,102890.28
2017-12-22T14:18:51.178Z,102901.05
2017-12-22T14:21:18.770Z,102896.72
2017-12-22T14:23:46.317Z,102892.22
2017-12-22T14:26:13.836Z,102896.23
2017-12-22T14:28:41.818Z,102894.81
2017-12-22T14:31:09.367Z,102897.59
2017-12-22T14:33:36.926Z,102896.92
2017-12-22T14:36:04.514Z,102901.13
2017-12-22T14:38:32.070Z,102898.41
2017-12-22T14:40:59.679Z,102899.46
2017-12-22T14:43:27.230Z,102897.63
2017-12-22T14:45:54.770Z,102906.02
2017-12-22T14:48:22.749Z,102913.59
2017-12-22T14:50:50.530Z,102911.67
2017-12-22T14:53:18.070Z,102911.08
2017-12-22T14:55:45.641Z,102909.75
2017-12-22T14:58:13.156Z,102915.00
2017-12-22T15:00:40.728Z,102909.74
2017-12-22T15:03:08.252Z,102902.58
2017-12-22T15:05:35.807Z,102897.73
2017-12-22T15:08:03.909Z,102906.42
2017-12-22T15:10:31.649Z,102908.03
2017-12-22T15:12:59.433Z,102912.28
2017-12-22T15:15:27.059Z,102915.02
2017-12-22T15:17:54.593Z,102918.88
2017-12-22T15:20:22.155Z,102921.37
2017-12-22T15:22:49.730Z,102924.66
2017-12-22T15:25:17.297Z,102922.74
2017-12-22T15:27:44.901Z,102925.17
2017-12-22T15:30:12.426Z,102927.85
2017-12-22T15:32:40.023Z,102925.13
2017-12-22T15:35:07.614Z,102926.30
2017-12-22T15:37:35.175Z,102926.79
2017-12-22T15:40:02.807Z,102928.89
2017-12-22T15:42:30.502Z,102926.71
2017-12-22T15:44:58.249Z,102926.23
2017-12-22T15:47:25.940Z,102924.39
2017-12-22T15:49:53.551Z,102930.94
2017-12-22T15:52:21.119Z,102930.34
2017-12-22T15:54:48.686Z,102931.32
2017-12-22T15:57:16.301Z,102931.92
2017-12-22T15:59:43.877Z,102936.67
2017-12-22T16:02:11.706Z,102939.73
2017-12-22T16:04:39.734Z,102936.40
2017-12-22T16:07:07.255Z,102938.85
2017-12-22T16:09:34.783Z,102947.16
2017-12-22T16:12:02.374Z,102953.23
2017-12-22T16:14:30.186Z,102957.16
2017-12-22T16:16:57.760Z,102957.49
2017-12-22T16:19:25.760Z,102954.92
2017-12-22T16:21:53.289Z,102961.64
2017-12-22T16:24:20.851Z,102962.91
2017-12-22T16:26:48.820Z,102963.53
2017-12-22T16:29:16.422Z,102959.98
2017-12-22T16:31:43.943Z,102957.88
2017-12-22T16:34:11.554Z,102956.84
2017-12-22T16:36:39.127Z,102955.20
2017-12-22T16:39:06.706Z,102947.45
2017-12-22T16:41:34.632Z,102939.84
2017-12-22T16:44:02.157Z,102938.93
2017-12-22T16:46:29.718Z,102935.59
2017-12-22T16:48:57.329Z,102942.52
2017-12-22T16:51:24.986Z,102942.04
2017-12-22T16:53:52.513Z,102940.45
2017-12-22T16:56:20.103Z,102941.00
2017-12-22T16:58:47.633Z,102945.00
2017-12-22T17:01:15.612Z,102947.36
2017-12-22T17:03:43.206Z,102945.61
2017-12-22T17:06:10.962Z,102946.86
2017-12-22T17:08:38.988Z,102952.19
2017-12-22T17:11:06.803Z,102953.50
2017-12-22T17:13:34.343Z,102964.36
2017-12-22T17:16:01.898Z,102964.20
2017-12-22T17:18:29.502Z,102970.59
2017-12-22T17:20:57.034Z,102962.14
2017-12-22T17:23:24.592Z,102962.67
2017-12-22T17:25:52.140Z,102964.36
2017-12-22T17:28:19.666Z,102958.77
2017-12-22T17:30:47.283Z,102951.39
2017-12-22T17:33:14.811Z,102959.67
2017-12-22T17:35:42.519Z,102954.61
2017-12-22T17:38:10.111Z,102958.20
2017-12-22T17:40:37.650Z,102958.30
2017-12-22T17:43:05.191Z,102950.51
2017-12-22T17:45:32.724Z,102949.63
2017-12-22T17:48:00.318Z,102949.63
2017-12-22T17:50:27.891Z,102942.59
2017-12-22T17:52:55.518Z,102946.53
2017-12-22T17:55:23.048Z,102941.84
2017-12-22T17:57:50.625Z,102939.45
2017-12-22T18:00:18.209Z,102945.05
2017-12-22T18:02:45.788Z,102942.16
2017-12-22T18:05:13.366Z,102950.73
2017-12-22T18:07:40.916Z,102955.36
2017-12-22T18:10:08.909Z,102952.60
2017-12-22T18:12:36.544Z,102956.50
2017-12-22T18:15:04.220Z,102958.97
2017-12-22T18:17:31.914Z,102969.22
2017-12-22T18:19:59.589Z,102970.13
2017-12-22T18:22:27.265Z,102973.94
2017-12-22T18:24:55.145Z,102970.16
2017-12-22T18:27:22.698Z,102966.98
2017-12-22T18:29:50.228Z,102962.77
2017-12-22T18:32:18.722Z,102963.92
2017-12-22T18:34:46.262Z,102963.94
2017-12-22T18:37:13.788Z,102959.14
2017-12-22T18:39:41.373Z,102956.28
2017-12-22T18:42:08.901Z,102960.88
2017-12-22T18:44:36.427Z,102957.72
2017-12-22T18:47:04.027Z,102953.58
2017-12-22T18:49:31.663Z,102959.41
2017-12-22T18:51:59.480Z,102955.46
2017-12-22T18:54:27.063Z,102946.02
2017-12-22T18:56:54.612Z,102955.47
2017-12-22T18:59:22.164Z,102957.47
2017-12-22T19:01:49.700Z,102950.77
2017-12-22T19:04:17.284Z,102951.89
2017-12-22T19:06:45.016Z,102957.52
2017-12-22T19:09:12.801Z,102948.48
2017-12-22T19:11:40.381Z,102935.84
2017-12-22T19:14:07.941Z,102937.98
2017-12-22T19:16:35.717Z,102937.64
2017-12-22T19:19:03.462Z,102935.34
2017-12-22T19:21:30.989Z,102936.79
2017-12-22T19:23:58.577Z,102946.47
2017-12-22T19:26:26.165Z,102955.16
2017-12-22T19:28:54.139Z,102953.61
2017-12-22T19:31:21.702Z,102950.88
2017-12-22T19:33:49.311Z,102950.51
2017-12-22T19:36:16.901Z,102946.06
2017-12-22T19:38:44.529Z,102946.64
2017-12-22T19:41:12.065Z,102945.88
2017-12-22T19:43:39.630Z,102937.06
2017-12-22T19:46:07.230Z,102939.77
2017-12-22T19:48:34.756Z,102940.56
2017-12-22T19:51:02.331Z,102944.78
2017-12-22T19:53:29.871Z,102948.80
2017-12-22T19:55:57.401Z,102952.19
2017-12-22T19:58:25.430Z,102953.66
2017-12-22T20:00:53.150Z,102965.86
2017-12-22T20:03:27.902Z,102959.98
2017-12-22T20:05:55.440Z,102959.86
2017-12-22T20:08:22.980Z,102949.56
2017-12-22T20:10:50.702Z,102954.47
2017-12-22T20:13:18.264Z,102960.06
2017-12-22T20:15:45.838Z,102965.28
2017-12-22T20:18:13.425Z,102966.55
2017-12-22T20:20:40.951Z,102969.11
2017-12-22T20:23:08.683Z,102975.87
2017-12-22T20:25:36.256Z,102976.81
2017-12-22T20:28:03.848Z,102984.30
2017-12-22T20:30:31.478Z,102983.69
2017-12-22T20:32:59.073Z,102986.92
2017-12-22T20:35:26.628Z,102994.05
2017-12-22T20:37:54.229Z,102996.67
2017-12-22T20:40:21.822Z,102997.69
2017-12-22T20:42:49.432Z,103005.12
2017-12-22T20:45:17.030Z,103007.98
2017-12-22T20:47:45.021Z,103015.46
2017-12-22T20:50:12.619Z,103014.09
2017-12-22T20:52:40.206Z,103002.73
2017-12-22T20:55:07.859Z,103003.69
2017-12-22T20:57:35.445Z,103007.28
2017-12-22T21:00:03.109Z,103003.50
2017-12-22T21:02:30.740Z,102996.42
2017-12-22T21:04:58.310Z,102993.05
2017-12-22T21:07:25.922Z,102999.11
2017-12-22T21:09:53.476Z,103003.94
2017-12-22T21:12:21.005Z,103009.16
2017-12-22T21:14:48.613Z,103010.27
2017-12-22T21:17:16.299Z,103009.86
2017-12-22T21:19:44.047Z,103017.36
2017-12-22T21:22:11.631Z,103018.77
2017-12-22T21:24:39.309Z,103023.64
2017-12-22T21:27:06.995Z,103008.28
2017-12-22T21:29:34.689Z,103005.61
2017-12-22T21:32:02.270Z,103009.97
2017-12-22T21:34:29.796Z,103011.02
2017-12-22T21:36:57.348Z,103012.84
2017-12-22T21:39:25.353Z,103014.35
2017-12-22T21:41:52.867Z,103001.97
2017-12-22T21:44:20.389Z,102997.44
2017-12-22T21:46:48.332Z,102994.40
2017-12-22T21:49:15.902Z,102987.67
2017-12-22T21:51:43.461Z,102988.87
2017-12-22T21:54:11.203Z,102996.32
2017-12-22T21:56:38.762Z,102997.98
2017-12-22T21:59:06.320Z,103004.59
2017-12-22T22:01:33.920Z,103006.27
2017-12-22T22:04:01.443Z,102993.14
2017-12-22T22:06:29.025Z,102997.03
2017-12-22T22:08:56.565Z,102987.77
2017-12-22T22:11:24.125Z,102979.84
2017-12-22T22:13:51.672Z,102977.06
2017-12-22T22:16:19.184Z,102973.61
2017-12-22T22:18:47.123Z,102962.77
2017-12-22T22:21:14.722Z,102962.00
2017-12-22T22:23:42.285Z,102962.82
2017-12-22T22:26:09.879Z,102968.64
2017-12-22T22:28:37.462Z,102972.83
2017-12-22T22:31:05.050Z,102971.59
2017-12-22T22:33:32.580Z,102962.04
2017-12-22T22:36:00.533Z,102968.40
2017-12-22T22:38:28.089Z,102962.77
2017-12-22T22:40:55.658Z,102951.97
2017-12-22T22:43:23.317Z,102954.48
2017-12-22T22:45:50.920Z,102962.02
2017-12-22T22:48:18.492Z,102964.50
2017-12-22T22:50:46.095Z,102973.79
2017-12-22T22:53:13.820Z,102972.63
2017-12-22T22:55:41.372Z,102972.25
2017-12-22T22:58:08.926Z,102967.61
2017-12-22T23:00:36.532Z,102962.09
2017-12-22T23:03:04.103Z,102968.63
2017-12-22T23:05:32.126Z,102970.55
2017-12-22T23:07:59.696Z,102978.28
2017-12-22T23:10:27.264Z,102965.54
2017-12-22T23:12:55.016Z,102959.98
2017-12-22T23:15:22.557Z,102956.69
2017-12-22T23:17:50.096Z,102947.58
2017-12-22T23:20:17.938Z,102934.70
2017-12-22T23:22:45.507Z,102928.44
2017-12-22T23:25:13.081Z,102930.87
2017-12-22T23:27:40.655Z,102931.16
2017-12-22T23:30:08.225Z,102925.47
2017-12-22T23:32:36.095Z,102909.23
2017-12-22T23:35:03.620Z,102899.47
2017-12-22T23:37:31.175Z,102902.36
2017-12-22T23:39:59.219Z,102906.30
2017-12-22T23:42:26.796Z,102895.05
2017-12-22T23:44:54.328Z,102888.89
2017-12-22T23:47:21.952Z,102897.06
2017-12-22T23:49:49.481Z,102888.95
2017-12-22T23:52:17.861Z,102895.13
2017-12-22T23:54:45.430Z,102892.45
2017-12-22T23:57:13.036Z,102893.59
2017-12-22T23:59:40.620Z,102892.68
